Weather at Fairfield Municipal Airport

Public forecast

Using degrees Fahrenheit for public forecast. Weather courtesy of forecast.io.

Current aviation weather report (METAR) for Fairfield Municipal Airport

2024/07/20 18:15 (retrieved 18 minutes ago)

KFWC 201815Z AUTO 36003KT 10SM BKN060 OVC070 26/17 A3011 RMK AO2 T02630174

Closest aviation forecast (TAF) to Fairfield Municipal Airport

Closest forecast is Mount Vernon Outland Airport, 21.3 nm (39.4 km) W.

2024/07/20 18:21 (retrieved 12 minutes ago)

TAF KMVN 201720Z 2018/2118 VRB04KT P6SM SCT050 FM202100 VRB03KT P6SM FEW050 BKN250 FM210800 00000KT 6SM BR MIFG SCT080 FM211400 03004KT P6SM SCT040